Time;durP1;ratioP1;P1;durP2;ratioP2;P2;SDS_P1;SDS_P2;PMS_P1;PMS_P2;Temp;Humidity;BMP_temperature;BMP_pressure;BME280_temperature;BME280_humidity;BME280_pressure;Samples;Min_cycle;Max_cycle;Signal;HPM_P1;HPM_P2
2022/05/25 00:01:57;;;;;;;6.62;3.45;;;;;;;20.49;56.28;99337.50;4347183;33;31951;-90
2022/05/25 00:04:26;;;;;;;5.90;3.83;;;;;;;20.52;56.37;99339.72;4346799;32;34876;-91
2022/05/25 00:06:54;;;;;;;6.15;4.20;;;;;;;20.25;57.57;99358.69;4347113;33;34912;-91
2022/05/25 00:09:22;;;;;;;7.12;3.87;;;;;;;20.33;57.28;99360.91;4334676;33;32062;-91
2022/05/25 00:11:50;;;;;;;6.85;3.42;;;;;;;20.49;56.60;99348.66;4346562;33;33091;-92
2022/05/25 00:14:18;;;;;;;5.90;4.03;;;;;;;20.42;56.87;99348.13;4359214;32;31995;-91
2022/05/25 00:16:46;;;;;;;8.40;3.95;;;;;;;20.31;57.27;99338.06;4346793;33;32830;-90
2022/05/25 00:22:01;;;;;;;;;;;;;;;20.30;57.33;99336.38;4336707;33;32493;-91
2022/05/25 00:24:30;;;;;;;7.72;4.47;;;;;;;20.28;57.36;99327.47;4371236;32;34320;-90
2022/05/25 00:26:58;;;;;;;6.65;4.20;;;;;;;20.26;57.64;99329.72;4334174;33;32576;-91
2022/05/25 00:29:26;;;;;;;6.22;4.22;;;;;;;20.23;57.32;99330.28;4346552;33;34028;-91
2022/05/25 00:31:57;;;;;;;5.60;3.50;;;;;;;20.32;57.24;99339.72;4346781;33;31368;-91
2022/05/25 00:34:27;;;;;;;6.50;4.10;;;;;;;20.25;57.35;99337.22;4346863;33;33770;-91
2022/05/25 00:36:58;;;;;;;7.68;4.30;;;;;;;20.22;57.50;99335.00;4346466;33;34002;-91
2022/05/25 00:39:29;;;;;;;6.87;4.22;;;;;;;20.27;57.06;99340.56;4347282;33;33814;-91
2022/05/25 00:41:59;;;;;;;7.90;4.00;;;;;;;20.29;56.98;99343.91;4348545;32;33604;-93
2022/05/25 00:44:27;;;;;;;4.97;3.50;;;;;;;20.39;56.83;99345.87;4347944;33;34652;-93
2022/05/25 00:46:55;;;;;;;7.03;3.58;;;;;;;20.34;57.11;99343.06;4348766;32;34337;-94
2022/05/25 00:49:27;;;;;;;9.45;4.12;;;;;;;20.43;56.87;99335.84;4336156;33;32995;-94
2022/05/25 00:52:05;;;;;;;8.38;3.90;;;;;;;20.40;56.94;99330.84;4348309;33;31848;-94
2022/05/25 00:54:44;;;;;;;7.65;3.95;;;;;;;20.34;57.15;99334.72;4336296;33;33872;-93
2022/05/25 00:57:24;;;;;;;5.70;3.67;;;;;;;20.41;57.08;99335.28;4348720;33;34503;-95
2022/05/25 01:00:04;;;;;;;5.85;3.97;;;;;;;20.27;57.71;99342.53;4348355;33;33677;-93
2022/05/25 01:02:35;;;;;;;9.25;4.15;;;;;;;20.23;57.66;99345.03;4360731;32;33120;-95
2022/05/25 01:05:04;;;;;;;5.78;3.80;;;;;;;20.30;57.58;99344.75;4348363;33;33775;-93
2022/05/25 01:07:38;;;;;;;6.25;4.00;;;;;;;20.37;57.07;99353.66;4348123;33;34467;-94
2022/05/25 01:10:11;;;;;;;7.30;3.75;;;;;;;20.46;56.91;99353.97;4360494;32;32397;-94
2022/05/25 01:12:45;;;;;;;6.68;3.80;;;;;;;20.38;56.92;99358.16;4372849;32;33420;-93
2022/05/25 01:15:32;;;;;;;7.20;4.10;;;;;;;20.40;57.04;99358.72;4360619;32;32180;-95
2022/05/25 01:18:24;;;;;;;7.40;4.05;;;;;;;20.27;57.88;99348.09;4360566;32;32965;-94
2022/05/25 01:21:05;;;;;;;7.28;3.87;;;;;;;20.23;57.50;99352.56;4360331;32;32411;-92
2022/05/25 01:23:57;;;;;;;7.07;4.15;;;;;;;20.15;57.63;99348.38;4360294;32;32503;-94
2022/05/25 01:26:32;;;;;;;7.37;4.47;;;;;;;20.34;56.78;99357.00;4335905;33;32232;-94
2022/05/25 01:29:09;;;;;;;7.40;3.95;;;;;;;20.33;56.52;99366.50;4348217;33;32572;-92
2022/05/25 01:31:47;;;;;;;6.47;4.18;;;;;;;20.21;56.93;99358.41;4348101;33;34146;-94
2022/05/25 01:34:39;;;;;;;5.72;3.72;;;;;;;20.18;57.06;99366.50;4348305;33;33310;-93
2022/05/25 01:37:14;;;;;;;7.03;4.00;;;;;;;20.18;57.01;99358.13;4360466;32;32257;-93
2022/05/25 01:40:08;;;;;;;6.90;3.90;;;;;;;20.21;56.70;99354.78;4360570;32;34112;-93
2022/05/25 01:42:45;;;;;;;8.52;4.07;;;;;;;20.17;56.92;99356.47;4348307;33;33652;-94
2022/05/25 01:45:14;;;;;;;8.38;3.37;;;;;;;20.13;56.84;99355.38;4348037;33;31709;-94
2022/05/25 01:47:45;;;;;;;5.85;3.72;;;;;;;20.18;56.56;99360.94;4348158;33;32221;-94
2022/05/25 01:50:25;;;;;;;6.22;3.53;;;;;;;20.11;56.67;99361.25;4347700;33;33785;-91
2022/05/25 01:52:59;;;;;;;6.82;3.75;;;;;;;20.14;56.53;99365.41;4347723;33;33938;-93
2022/05/25 01:55:44;;;;;;;5.90;3.37;;;;;;;20.32;55.89;99351.72;4347525;33;31789;-92
2022/05/25 01:58:19;;;;;;;6.43;3.42;;;;;;;20.09;56.25;99349.53;4360162;32;32187;-93
2022/05/25 02:00:52;;;;;;;5.78;3.40;;;;;;;20.11;56.07;99349.25;4347666;32;34412;-93
2022/05/25 02:06:31;;;;;;;7.00;3.85;;;;;;;19.61;57.22;99359.25;4348077;33;34139;-92
2022/05/25 02:09:24;;;;;;;5.37;3.33;;;;;;;19.79;56.57;99361.50;4360177;32;33117;-93
2022/05/25 02:12:01;;;;;;;5.00;3.25;;;;;;;19.65;56.65;99360.37;4335454;33;32919;-92
2022/05/25 02:14:48;;;;;;;6.62;3.17;;;;;;;19.80;56.39;99349.25;4360003;32;32271;-91
2022/05/25 02:17:23;;;;;;;6.60;3.72;;;;;;;19.87;56.03;99349.81;4335848;33;32202;-93
2022/05/25 02:19:58;;;;;;;5.12;3.40;;;;;;;19.91;55.99;99359.28;4335871;33;32205;-91
2022/05/25 02:22:43;;;;;;;5.47;3.08;;;;;;;19.87;56.01;99349.81;4360151;32;32992;-92
2022/05/25 02:25:22;;;;;;;5.70;3.15;;;;;;;19.68;56.46;99343.94;4335558;33;32306;-92
2022/05/25 02:27:57;;;;;;;6.10;3.40;;;;;;;19.65;56.71;99349.25;4335745;33;32820;-92
2022/05/25 02:30:29;;;;;;;6.95;3.53;;;;;;;19.78;56.23;99339.50;4335629;33;32643;-91
2022/05/25 02:33:10;;;;;;;4.87;3.35;;;;;;;19.61;56.68;99339.75;4347744;33;33444;-92
2022/05/25 02:35:42;;;;;;;5.50;3.35;;;;;;;19.67;56.61;99341.44;4335448;33;32489;-91
2022/05/25 02:38:10;;;;;;;7.07;3.50;;;;;;;19.77;56.25;99346.19;4347987;32;32900;-92
2022/05/25 02:40:40;;;;;;;5.57;3.42;;;;;;;19.56;56.86;99345.31;4348031;32;34655;-91
2022/05/25 02:43:11;;;;;;;6.50;3.65;;;;;;;19.60;56.76;99338.94;4335641;33;33707;-92
2022/05/25 02:45:39;;;;;;;5.93;3.67;;;;;;;19.74;56.43;99337.28;4347670;33;34789;-92
2022/05/25 02:48:07;;;;;;;6.47;3.72;;;;;;;19.49;57.27;99347.53;4335546;33;33067;-93
2022/05/25 02:50:35;;;;;;;5.50;3.37;;;;;;;19.46;57.41;99345.31;4347774;32;33748;-92
2022/05/25 02:53:04;;;;;;;6.47;3.33;;;;;;;19.51;57.10;99348.94;4347706;32;34235;-93
2022/05/25 02:55:34;;;;;;;5.45;3.20;;;;;;;19.38;57.75;99346.69;4347707;33;32431;-92
2022/05/25 02:58:05;;;;;;;6.53;3.92;;;;;;;19.26;57.99;99346.91;4347571;33;33244;-93
2022/05/25 03:00:33;;;;;;;5.82;3.70;;;;;;;19.33;57.83;99347.50;4360105;32;32884;-92
2022/05/25 03:03:00;;;;;;;5.90;3.45;;;;;;;19.47;57.50;99347.81;4347306;33;34071;-91
2022/05/25 03:05:28;;;;;;;8.10;3.67;;;;;;;19.57;56.98;99347.84;4347791;32;34052;-92
2022/05/25 03:07:57;;;;;;;7.03;3.40;;;;;;;19.40;57.65;99348.06;4347612;32;33427;-93
2022/05/25 03:10:25;;;;;;;6.82;3.55;;;;;;;19.46;57.29;99345.31;4359669;32;32232;-91
2022/05/25 03:12:53;;;;;;;5.85;3.75;;;;;;;19.54;57.14;99347.53;4335246;33;32919;-91
2022/05/25 03:15:25;;;;;;;5.95;3.65;;;;;;;19.39;57.63;99348.34;4347801;32;33907;-91
2022/05/25 03:17:55;;;;;;;7.25;3.65;;;;;;;19.47;57.36;99346.97;4347249;33;34268;-88
2022/05/25 03:20:28;;;;;;;6.25;3.45;;;;;;;19.39;57.79;99356.69;4359809;32;33247;-91
2022/05/25 03:22:56;;;;;;;7.90;3.80;;;;;;;19.47;57.78;99352.53;4346817;33;32587;-91
2022/05/25 03:25:30;;;;;;;5.20;3.10;;;;;;;19.32;58.23;99347.78;4347067;32;34620;-90
2022/05/25 03:28:03;;;;;;;6.60;4.20;;;;;;;19.36;58.05;99341.38;4347591;32;33528;-89
2022/05/25 03:30:34;;;;;;;8.02;3.42;;;;;;;19.25;58.23;99345.25;4360056;32;32033;-90
2022/05/25 03:33:10;;;;;;;8.18;5.25;;;;;;;19.56;57.08;99346.16;4347368;33;34431;-89
2022/05/25 03:35:46;;;;;;;9.18;4.78;;;;;;;19.32;57.85;99345.81;4347706;32;33927;-92
2022/05/25 03:38:14;;;;;;;8.90;4.77;;;;;;;19.30;57.94;99358.34;4347698;32;33766;-90
2022/05/25 03:40:47;;;;;;;7.72;4.90;;;;;;;19.40;57.44;99353.66;4347687;33;33844;-90
2022/05/25 03:43:24;;;;;;;6.05;3.75;;;;;;;19.42;57.50;99356.97;4335471;33;33057;-94
2022/05/25 03:45:58;;;;;;;6.60;4.07;;;;;;;19.60;56.83;99361.19;4359872;32;33293;-95
2022/05/25 03:48:30;;;;;;;6.90;3.80;;;;;;;19.53;56.96;99373.72;4335763;33;32016;-95
2022/05/25 03:51:02;;;;;;;6.20;3.95;;;;;;;19.48;57.13;99371.75;4347534;32;32626;-94
2022/05/25 03:53:30;;;;;;;5.70;3.30;;;;;;;19.37;57.53;99370.88;4347361;33;34643;-95
2022/05/25 03:55:58;;;;;;;7.72;3.58;;;;;;;19.40;57.29;99370.34;4335262;33;32098;-95
2022/05/25 03:58:31;;;;;;;5.53;3.60;;;;;;;19.36;57.32;99363.66;4335349;33;32787;-95
2022/05/25 04:01:01;;;;;;;6.93;3.58;;;;;;;19.39;57.56;99378.97;4347219;33;33113;-92
2022/05/25 04:03:31;;;;;;;7.22;3.60;;;;;;;19.46;57.43;99384.28;4347473;33;34202;-93
2022/05/25 04:06:07;;;;;;;5.72;3.15;;;;;;;19.55;56.99;99382.63;4347664;32;33846;-96
2022/05/25 04:08:37;;;;;;;8.50;4.32;;;;;;;19.26;57.72;99388.66;4335519;33;32052;-96
2022/05/25 04:11:11;;;;;;;6.25;3.35;;;;;;;19.30;57.82;99389.78;4347527;32;34036;-95
2022/05/25 04:13:44;;;;;;;6.65;3.45;;;;;;;19.32;57.88;99386.72;4346362;33;34300;-94
2022/05/25 04:16:19;;;;;;;6.85;3.58;;;;;;;19.45;57.33;99385.38;4347091;33;34512;-94
2022/05/25 04:18:47;;;;;;;5.60;3.47;;;;;;;19.37;57.35;99395.09;4359390;32;32105;-94
2022/05/25 04:21:18;;;;;;;6.47;3.60;;;;;;;19.63;56.56;99390.44;4347537;33;33895;-94
2022/05/25 04:23:50;;;;;;;5.15;3.45;;;;;;;19.57;56.68;99391.53;4359666;32;33696;-95
2022/05/25 04:26:18;;;;;;;7.12;3.20;;;;;;;19.61;56.40;99396.28;4359522;32;32458;-96
2022/05/25 04:28:51;;;;;;;5.75;3.10;;;;;;;19.52;57.08;99414.63;4334833;33;32604;-94
2022/05/25 04:31:24;;;;;;;7.07;3.60;;;;;;;19.48;56.65;99409.88;4347091;33;33830;-94
2022/05/25 04:33:57;;;;;;;5.87;3.50;;;;;;;19.42;56.78;99409.88;4359697;32;33026;-94
2022/05/25 04:36:38;;;;;;;8.38;4.53;;;;;;;19.39;57.33;99406.78;4335211;33;32432;-96
2022/05/25 04:39:08;;;;;;;6.20;3.83;;;;;;;19.39;56.47;99395.66;4335256;33;31586;-92
2022/05/25 04:41:37;;;;;;;7.05;3.53;;;;;;;19.38;56.50;99392.03;4340518;33;32194;-90
2022/05/25 04:44:05;;;;;;;5.70;3.42;;;;;;;19.47;56.41;99397.06;4324039;33;33189;-95
2022/05/25 04:46:35;;;;;;;7.40;3.42;;;;;;;19.40;56.75;99392.59;4345753;33;33591;-94
2022/05/25 04:49:06;;;;;;;7.35;3.30;;;;;;;19.65;56.25;99393.78;4334953;33;31577;-95
2022/05/25 04:51:42;;;;;;;7.80;3.50;;;;;;;19.56;56.14;99401.00;4335095;33;33776;-95
2022/05/25 04:54:12;;;;;;;6.20;3.00;;;;;;;19.70;56.01;99410.50;4322243;33;35141;-95
2022/05/25 04:59:30;;;;;;;4.80;2.80;;;;;;;19.92;55.46;99404.69;4336239;33;31659;-94
2022/05/25 05:02:01;;;;;;;7.62;3.50;;;;;;;19.94;55.32;99414.44;4334296;33;34070;-87
2022/05/25 05:04:32;;;;;;;7.30;3.80;;;;;;;20.00;55.32;99416.13;4334302;33;32754;-87
2022/05/25 05:07:01;;;;;;;8.77;3.72;;;;;;;19.70;56.43;99422.47;4334338;33;32430;-93
2022/05/25 05:09:33;;;;;;;6.87;3.33;;;;;;;19.82;56.19;99413.87;4346567;33;33164;-88
2022/05/25 05:12:06;;;;;;;7.00;3.17;;;;;;;19.99;55.58;99416.41;4333331;33;33793;-89
2022/05/25 05:14:39;;;;;;;7.37;3.50;;;;;;;19.81;56.94;99426.12;4342993;33;34739;-95
2022/05/25 05:17:09;;;;;;;6.50;3.47;;;;;;;19.85;57.00;99429.19;4333932;33;32640;-94
2022/05/25 05:19:41;;;;;;;5.93;3.62;;;;;;;20.04;56.41;99428.38;4339621;33;32140;-96
2022/05/25 05:22:12;;;;;;;6.90;3.60;;;;;;;19.90;56.74;99430.03;4346663;33;34187;-92
2022/05/25 05:24:44;;;;;;;5.43;3.50;;;;;;;20.12;56.13;99427.00;4335162;33;33818;-96
2022/05/25 05:27:16;;;;;;;7.45;3.90;;;;;;;20.38;55.12;99425.06;4336488;33;33430;-91
2022/05/25 05:29:44;;;;;;;7.22;3.70;;;;;;;20.33;55.04;99436.16;4336050;33;32954;-94
2022/05/25 05:32:18;;;;;;;5.72;3.40;;;;;;;20.15;56.36;99443.13;4336234;33;31970;-94
2022/05/25 05:34:52;;;;;;;8.18;4.03;;;;;;;20.30;55.42;99450.66;4351184;32;32687;-94
2022/05/25 05:37:26;;;;;;;6.60;3.70;;;;;;;20.44;55.33;99448.19;4346099;32;34169;-93
2022/05/25 05:40:03;;;;;;;7.40;4.10;;;;;;;20.38;55.54;99452.94;4345379;33;31736;-92
2022/05/25 05:42:40;;;;;;;6.18;3.65;;;;;;;20.19;56.22;99449.81;4345634;33;32051;-93
2022/05/25 05:45:17;;;;;;;7.53;3.45;;;;;;;20.39;55.46;99461.00;4345535;32;35206;-91
2022/05/25 05:48:15;;;;;;;7.95;3.47;;;;;;;20.56;55.09;99455.16;4345366;32;34570;-92
2022/05/25 05:50:43;;;;;;;6.57;3.83;;;;;;;20.31;55.91;99461.53;4345380;32;33324;-92
2022/05/25 05:53:15;;;;;;;6.93;4.03;;;;;;;20.26;56.31;99458.75;4331391;33;33049;-92
2022/05/25 05:55:46;;;;;;;7.60;3.75;;;;;;;20.23;56.77;99466.81;4343229;33;32799;-91
2022/05/25 06:01:38;;;;;;;6.25;3.58;;;;;;;20.59;55.82;99476.91;4354868;32;32610;-91
2022/05/25 06:04:13;;;;;;;5.97;3.58;;;;;;;20.44;56.26;99479.69;4344748;33;33550;-90
2022/05/25 06:06:46;;;;;;;10.10;3.80;;;;;;;20.76;55.44;99472.97;4344941;33;32893;-92
2022/05/25 06:09:16;;;;;;;7.15;3.62;;;;;;;20.75;54.77;99465.72;4345585;32;33478;-91
2022/05/25 06:11:47;;;;;;;8.50;3.53;;;;;;;20.79;54.40;99464.06;4345145;33;33167;-91
2022/05/25 06:14:15;;;;;;;7.45;3.65;;;;;;;20.65;54.88;99461.00;4345362;32;33621;-91
2022/05/25 06:19:41;;;;;;;8.18;3.87;;;;;;;20.70;55.19;99470.19;4347433;32;32713;-92
2022/05/25 06:22:18;;;;;;;8.23;3.33;;;;;;;20.71;55.41;99474.66;4344926;33;33403;-91
2022/05/25 06:24:48;;;;;;;5.95;3.60;;;;;;;20.72;55.58;99475.50;4333321;33;32965;-92
2022/05/25 06:27:18;;;;;;;8.00;4.32;;;;;;;20.78;55.91;99481.91;4345104;32;35245;-91
2022/05/25 06:29:47;;;;;;;5.75;3.35;;;;;;;20.62;55.78;99470.75;4345264;33;32447;-91
2022/05/25 06:32:23;;;;;;;6.72;3.97;;;;;;;20.93;55.15;99479.06;4333198;33;31457;-91
2022/05/25 06:34:53;;;;;;;5.62;3.67;;;;;;;20.93;54.90;99487.44;4345384;32;33723;-91
2022/05/25 06:37:24;;;;;;;5.87;3.50;;;;;;;20.87;56.33;99474.59;4332674;33;33802;-91
2022/05/25 06:39:52;;;;;;;7.57;3.50;;;;;;;20.97;55.68;99469.00;4345101;33;32483;-91
2022/05/25 06:42:21;;;;;;;8.18;3.80;;;;;;;21.18;55.32;99459.47;4333106;33;31819;-91
2022/05/25 06:44:53;;;;;;;6.93;3.78;;;;;;;21.32;55.38;99460.56;4345167;33;33379;-92
2022/05/25 06:47:23;;;;;;;6.32;3.87;;;;;;;21.54;54.01;99459.34;4332842;33;33716;-91
2022/05/25 06:49:54;;;;;;;7.00;3.97;;;;;;;21.40;55.06;99466.69;4332962;33;33961;-91
2022/05/25 06:52:26;;;;;;;7.82;3.80;;;;;;;21.61;52.98;99459.87;4320974;33;32636;-91
2022/05/25 06:54:55;;;;;;;7.45;3.67;;;;;;;21.68;53.80;99463.19;4332989;33;32502;-91
2022/05/25 06:57:25;;;;;;;7.30;3.50;;;;;;;21.72;53.60;99472.66;4345095;33;34304;-91
2022/05/25 06:59:53;;;;;;;6.45;4.07;;;;;;;21.76;53.41;99468.16;4345377;32;33709;-91
2022/05/25 07:02:27;;;;;;;5.70;3.37;;;;;;;21.91;53.18;99476.47;4345215;33;33389;-90
2022/05/25 07:05:01;;;;;;;5.57;3.35;;;;;;;21.92;52.82;99483.72;4344974;33;33017;-90
2022/05/25 07:07:32;;;;;;;7.78;3.80;;;;;;;21.93;53.17;99490.16;4333080;33;33801;-90
2022/05/25 07:10:00;;;;;;;6.12;3.20;;;;;;;22.09;52.92;99485.34;4333274;33;33445;-90
2022/05/25 07:12:32;;;;;;;6.70;3.95;;;;;;;22.14;53.13;99490.84;4332866;33;32103;-90
2022/05/25 07:15:03;;;;;;;5.22;3.30;;;;;;;22.12;53.30;99487.53;4344969;33;32487;-90
2022/05/25 07:17:37;;;;;;;6.30;3.92;;;;;;;21.98;53.22;99470.56;4344780;33;33706;-91
2022/05/25 07:20:09;;;;;;;6.22;4.00;;;;;;;22.23;53.22;99473.19;4345182;32;34852;-90
2022/05/25 07:22:39;;;;;;;8.35;4.00;;;;;;;22.27;53.28;99476.22;4344921;33;32732;-90
2022/05/25 07:25:08;;;;;;;10.73;7.22;;;;;;;22.50;52.41;99478.28;4345027;32;32079;-91
2022/05/25 07:27:35;;;;;;;15.50;9.90;;;;;;;22.57;52.86;99480.75;4344724;33;34564;-91
2022/05/25 07:30:07;;;;;;;9.13;5.32;;;;;;;22.65;51.71;99489.34;4333108;32;33226;-90
2022/05/25 07:32:38;;;;;;;8.13;4.75;;;;;;;22.76;51.51;99483.63;4344758;33;31911;-91
2022/05/25 07:35:07;;;;;;;7.97;4.87;;;;;;;22.72;51.14;99477.00;4332659;33;31924;-91
2022/05/25 07:37:38;;;;;;;7.20;4.25;;;;;;;22.95;51.85;99484.59;4332693;33;32878;-91
2022/05/25 07:40:22;;;;;;;7.45;5.10;;;;;;;22.99;51.57;99486.50;4332579;33;34502;-90
2022/05/25 07:43:12;;;;;;;14.07;5.90;;;;;;;22.78;53.45;99489.78;4343261;33;32668;-90
2022/05/25 07:45:43;;;;;;;9.35;4.90;;;;;;;23.00;52.30;99484.56;4345160;32;34261;-91
2022/05/25 07:48:14;;;;;;;8.15;4.68;;;;;;;23.32;51.94;99481.13;4343917;33;33233;-91
2022/05/25 07:50:46;;;;;;;7.60;4.20;;;;;;;23.25;51.68;99484.28;4344411;33;34154;-91
2022/05/25 07:56:07;;;;;;;7.95;4.85;;;;;;;23.31;50.84;99494.28;4322407;33;33644;-91
2022/05/25 07:58:37;;;;;;;8.98;4.78;;;;;;;23.52;51.02;99475.25;4332565;33;34022;-91
2022/05/25 08:01:13;;;;;;;8.82;4.90;;;;;;;23.81;49.07;99477.16;4344718;33;34834;-91
2022/05/25 08:06:33;;;;;;;7.18;4.95;;;;;;;23.71;50.89;99494.09;4346880;32;33888;-92
2022/05/25 08:09:02;;;;;;;8.70;4.93;;;;;;;23.84;49.51;99494.22;4320628;33;33788;-91
2022/05/25 08:11:34;;;;;;;10.30;5.47;;;;;;;23.92;49.54;99496.34;4344488;33;33342;-92
2022/05/25 08:14:08;;;;;;;;;;;;;;;24.04;49.00;99493.09;4344668;32;34047;-91
2022/05/25 08:16:36;;;;;;;7.70;5.10;;;;;;;24.05;49.23;99491.13;4344591;33;33899;-91
2022/05/25 08:19:11;;;;;;;8.25;5.43;;;;;;;24.06;50.42;99485.19;4344527;32;34531;-92
2022/05/25 08:21:38;;;;;;;12.82;8.30;;;;;;;24.06;49.58;99490.78;4332515;33;32089;-91
2022/05/25 08:24:15;;;;;;;10.88;5.75;;;;;;;24.08;50.28;99485.72;4332294;33;32498;-92
2022/05/25 08:26:42;;;;;;;8.57;5.80;;;;;;;24.19;50.12;99480.78;4332013;33;33695;-92
2022/05/25 08:29:11;;;;;;;9.55;5.82;;;;;;;24.33;50.93;99469.66;4332322;33;33962;-92
2022/05/25 08:31:39;;;;;;;9.45;5.50;;;;;;;24.21;50.53;99478.50;4344301;32;34718;-92
2022/05/25 08:34:10;;;;;;;8.20;5.65;;;;;;;24.36;49.89;99475.50;4344263;32;34975;-91
2022/05/25 08:36:45;;;;;;;7.03;5.50;;;;;;;24.46;49.24;99480.94;4344209;33;33664;-93
2022/05/25 08:39:18;;;;;;;9.80;6.90;;;;;;;24.73;49.25;99484.97;4332439;33;33789;-92
2022/05/25 08:41:51;;;;;;;32.92;23.87;;;;;;;24.75;48.75;99477.06;4320109;33;33936;-92
2022/05/25 08:44:23;;;;;;;16.02;9.45;;;;;;;24.93;48.14;99474.22;4320060;33;31566;-92
2022/05/25 08:47:00;;;;;;;9.32;6.12;;;;;;;24.93;48.77;99482.63;4332150;33;33047;-92
2022/05/25 08:49:54;;;;;;;9.98;6.28;;;;;;;25.14;47.11;99483.13;4331651;33;33776;-84
2022/05/25 08:52:31;;;;;;;9.98;6.65;;;;;;;25.06;47.12;99481.03;4331838;33;34103;-84
2022/05/25 08:55:06;;;;;;;12.45;8.00;;;;;;;25.27;46.91;99487.94;4331736;33;31854;-84
2022/05/25 08:57:59;;;;;;;8.30;5.37;;;;;;;25.44;47.91;99475.22;4331847;33;33751;-84
2022/05/25 09:00:26;;;;;;;8.05;6.00;;;;;;;25.63;46.90;99470.31;4332327;33;32950;-84
2022/05/25 09:03:16;;;;;;;9.60;6.12;;;;;;;25.82;45.31;99473.88;4321538;33;33026;-84
2022/05/25 09:05:50;;;;;;;12.25;8.25;;;;;;;25.88;44.76;99469.78;4358060;32;33490;-84
2022/05/25 09:09:01;;;;;;;7.10;5.72;;;;;;;25.89;45.58;99471.47;4333614;33;32132;-84
2022/05/25 09:11:48;;;;;;;7.12;4.62;;;;;;;26.15;44.79;99470.84;4325637;33;35313;-83
2022/05/25 09:14:59;;;;;;;7.72;5.10;;;;;;;26.22;45.22;99469.28;4345663;33;33242;-82
2022/05/25 09:17:35;;;;;;;7.85;5.22;;;;;;;26.39;45.89;99467.78;4315668;33;32617;-84
2022/05/25 09:20:08;;;;;;;17.10;6.28;;;;;;;26.50;44.94;99478.47;4321617;33;33231;-83
2022/05/25 09:22:37;;;;;;;9.88;5.57;;;;;;;26.40;46.30;99469.44;4345567;33;34334;-85
2022/05/25 09:25:07;;;;;;;18.10;12.25;;;;;;;26.69;44.98;99475.44;4357606;32;34209;-81
2022/05/25 09:28:12;;;;;;;13.07;8.05;;;;;;;26.85;43.95;99478.69;4333331;33;31833;-86
2022/05/25 09:30:42;;;;;;;9.13;6.47;;;;;;;27.08;43.68;99471.06;4321946;33;33488;-79
2022/05/25 09:33:18;;;;;;;8.48;5.57;;;;;;;27.20;43.69;99474.13;4321645;33;32634;-82
2022/05/25 09:35:55;;;;;;;8.00;6.10;;;;;;;27.32;44.24;99473.47;4333330;33;34670;-85
2022/05/25 09:38:31;;;;;;;10.07;5.53;;;;;;;27.58;44.44;99463.12;4357511;32;33471;-85
2022/05/25 09:41:06;;;;;;;10.35;5.60;;;;;;;27.58;43.83;99462.31;4357747;32;33591;-85
2022/05/25 09:43:34;;;;;;;12.18;6.90;;;;;;;27.84;42.54;99468.88;4333390;33;34453;-86
2022/05/25 09:46:18;;;;;;;21.65;19.35;;;;;;;28.00;41.32;99472.03;4333502;33;34090;-86
2022/05/25 09:48:52;;;;;;;11.60;7.82;;;;;;;28.06;41.90;99474.38;4345504;33;33160;-85
2022/05/25 09:51:26;;;;;;;8.88;6.05;;;;;;;28.09;41.55;99472.88;4333744;32;31707;-84
2022/05/25 09:54:06;;;;;;;9.93;6.35;;;;;;;28.26;41.05;99472.94;4358764;32;34555;-95
2022/05/25 09:56:39;;;;;;;8.82;6.10;;;;;;;28.30;41.72;99471.09;4346697;32;33985;-95
2022/05/25 09:59:13;;;;;;;9.07;5.72;;;;;;;28.22;42.24;99466.28;4346314;33;31738;-94
2022/05/25 10:01:46;;;;;;;9.32;5.80;;;;;;;28.19;41.70;99469.72;4322155;33;34667;-94
2022/05/25 10:04:37;;;;;;;11.98;6.10;;;;;;;28.18;41.34;99463.25;4321907;33;34348;-91
2022/05/25 10:07:26;;;;;;;9.88;6.40;;;;;;;28.61;40.89;99470.06;4332770;33;32586;-92
2022/05/25 10:09:59;;;;;;;9.00;6.32;;;;;;;29.11;39.99;99459.03;4323035;33;32994;-91
2022/05/25 10:12:44;;;;;;;10.30;6.25;;;;;;;29.11;39.71;99468.34;4308577;33;32427;-90
2022/05/25 10:15:29;;;;;;;10.07;6.70;;;;;;;29.20;39.92;99467.50;4326081;32;34510;-90
2022/05/25 10:18:01;;;;;;;10.50;7.03;;;;;;;29.41;39.36;99468.37;4336079;33;32995;-90
2022/05/25 10:20:35;;;;;;;9.57;6.30;;;;;;;29.35;38.89;99455.59;4348825;32;34267;-90
2022/05/25 10:23:08;;;;;;;9.18;6.53;;;;;;;29.56;39.01;99461.34;4347482;33;32288;-89
2022/05/25 10:25:41;;;;;;;9.85;6.72;;;;;;;29.78;38.84;99463.91;4335711;33;33616;-91
2022/05/25 10:28:23;;;;;;;10.60;7.47;;;;;;;29.90;37.81;99461.13;4335598;33;33368;-89
2022/05/25 10:37:00;;;;;;;12.15;6.35;;;;;;;30.23;37.62;99458.44;4362402;32;33002;-89
2022/05/25 10:39:32;;;;;;;10.00;5.80;;;;;;;30.09;37.64;99452.22;4359708;32;32643;-89
2022/05/25 10:42:29;;;;;;;11.18;6.07;;;;;;;30.17;37.43;99448.47;4339582;33;33251;-87
2022/05/25 10:45:06;;;;;;;10.38;7.72;;;;;;;30.13;37.66;99458.84;4347089;33;33284;-88
2022/05/25 10:47:54;;;;;;;11.12;6.87;;;;;;;30.08;36.78;99445.72;4359503;32;33007;-88
2022/05/25 10:50:51;;;;;;;10.65;7.18;;;;;;;30.00;37.18;99446.59;4343915;33;33196;-89
2022/05/25 10:56:48;;;;;;;13.82;7.10;;;;;;;30.44;37.40;99456.41;4349372;32;32310;-90
2022/05/25 11:03:14;;;;;;;9.25;6.18;;;;;;;30.80;36.01;99458.59;4347405;33;33408;-91
2022/05/25 11:06:26;;;;;;;13.23;6.03;;;;;;;30.59;36.92;99457.78;4335777;33;31510;-90
2022/05/25 11:09:19;;;;;;;11.43;6.12;;;;;;;29.23;38.79;99459.16;4317085;33;32165;-91
2022/05/25 11:11:59;;;;;;;9.20;6.07;;;;;;;29.58;38.96;99456.19;4335795;33;33908;-91
2022/05/25 11:14:36;;;;;;;12.75;5.32;;;;;;;29.93;38.80;99465.28;4335419;33;33497;-88
2022/05/25 11:17:21;;;;;;;9.55;6.65;;;;;;;29.88;37.43;99471.16;4347699;33;33414;-90
2022/05/25 11:20:14;;;;;;;11.77;5.70;;;;;;;29.63;37.64;99467.31;4323519;33;32691;-88
2022/05/25 11:23:17;;;;;;;9.68;6.15;;;;;;;30.08;37.29;99470.38;4322895;33;32913;-90
2022/05/25 11:26:14;;;;;;;6.55;4.68;;;;;;;30.62;36.10;99465.59;4335144;33;34438;-90
2022/05/25 11:29:07;;;;;;;8.27;5.03;;;;;;;31.09;34.94;99470.94;4347598;33;32902;-90
2022/05/25 11:31:47;;;;;;;7.95;4.93;;;;;;;30.08;36.11;99471.19;4347911;33;34615;-88
2022/05/25 11:34:54;;;;;;;7.95;5.43;;;;;;;29.93;36.30;99468.09;4348327;33;34773;-90
2022/05/25 11:37:47;;;;;;;8.30;5.20;;;;;;;29.97;36.29;99471.91;4335482;33;34196;-90
2022/05/25 11:40:30;;;;;;;9.95;5.47;;;;;;;29.95;36.53;99457.25;4335498;33;32010;-91
2022/05/25 11:43:05;;;;;;;7.95;5.03;;;;;;;29.98;36.15;99465.06;4335610;33;34776;-90
2022/05/25 11:45:56;;;;;;;8.38;4.87;;;;;;;30.24;36.38;99456.44;4335423;33;33773;-89
2022/05/25 11:48:57;;;;;;;9.52;5.10;;;;;;;30.58;35.97;99456.12;4327481;33;32615;-90
2022/05/25 11:51:37;;;;;;;7.07;4.75;;;;;;;30.92;35.72;99449.28;4335390;33;32546;-91
2022/05/25 11:54:32;;;;;;;8.45;5.10;;;;;;;31.18;34.74;99463.22;4335323;33;32340;-90
2022/05/25 11:57:28;;;;;;;7.97;4.82;;;;;;;30.67;35.12;99462.53;4335153;33;32686;-89
2022/05/25 12:00:17;;;;;;;9.60;4.97;;;;;;;29.66;36.79;99467.44;4335169;33;33421;-90
2022/05/25 12:03:04;;;;;;;9.95;5.28;;;;;;;29.92;37.55;99477.75;4349620;33;34001;-90
2022/05/25 12:05:53;;;;;;;8.95;5.28;;;;;;;30.22;37.45;99476.59;4350969;32;32079;-90
2022/05/25 12:08:46;;;;;;;7.90;5.35;;;;;;;29.75;37.76;99471.06;4350571;33;33671;-90
2022/05/25 12:11:38;;;;;;;8.30;5.20;;;;;;;29.81;38.25;99469.69;4351058;33;34547;-89
2022/05/25 12:14:19;;;;;;;8.18;5.22;;;;;;;30.27;37.07;99479.22;4350914;33;33534;-91
2022/05/25 12:16:54;;;;;;;6.53;4.50;;;;;;;30.00;37.78;99479.75;4336650;33;32283;-89
2022/05/25 12:19:30;;;;;;;8.30;4.95;;;;;;;30.33;37.39;99480.66;4335621;33;33004;-90
2022/05/25 12:22:11;;;;;;;14.93;5.70;;;;;;;30.83;36.20;99485.41;4335133;33;35186;-91
2022/05/25 12:24:45;;;;;;;9.40;5.35;;;;;;;30.49;37.48;99497.87;4334724;33;31894;-88
2022/05/25 12:27:19;;;;;;;9.52;5.53;;;;;;;30.17;37.61;99495.78;4352360;32;32199;-90
2022/05/25 12:30:01;;;;;;;8.35;5.40;;;;;;;30.05;38.07;99499.34;4344854;32;35248;-90
2022/05/25 12:32:32;;;;;;;8.88;5.35;;;;;;;29.91;38.47;99493.91;4346973;33;33801;-88
2022/05/25 12:35:11;;;;;;;13.73;10.45;;;;;;;29.05;39.52;99497.94;4334212;33;33601;-89
2022/05/25 12:37:53;;;;;;;9.13;6.47;;;;;;;29.13;39.62;99491.44;4346879;33;34625;-90
2022/05/25 12:40:33;;;;;;;7.93;5.32;;;;;;;29.62;39.99;99497.59;4335464;32;32952;-90
2022/05/25 12:43:08;;;;;;;7.95;5.60;;;;;;;29.86;39.75;99488.47;4346690;33;32300;-90
2022/05/25 12:49:01;;;;;;;9.90;5.50;;;;;;;29.91;37.92;99478.94;4338059;33;32091;-88